Time;durP1;ratioP1;P1;durP2;ratioP2;P2;SDS_P1;SDS_P2;PMS_P1;PMS_P2;Temp;Humidity;BMP_temperature;BMP_pressure;BME280_temperature;BME280_humidity;BME280_pressure;Samples;Min_cycle;Max_cycle;Signal;HPM_P1;HPM_P2
2023/09/11 00:00:31;;;;;;;10.03;8.33;;;22.20;99.90;;;;;;5015389;28;20259;-71
2023/09/11 00:02:56;;;;;;;10.03;8.70;;;22.10;99.90;;;;;;5015091;28;20845;-71
2023/09/11 00:05:22;;;;;;;9.60;8.70;;;22.10;99.90;;;;;;5014504;28;20195;-71
2023/09/11 00:07:48;;;;;;;10.17;7.20;;;22.10;99.90;;;;;;5015041;28;20168;-71
2023/09/11 00:10:13;;;;;;;10.13;9.23;;;22.10;99.90;;;;;;5015258;28;20184;-71
2023/09/11 00:12:39;;;;;;;9.20;8.30;;;22.00;99.90;;;;;;5014983;28;20191;-71
2023/09/11 00:15:05;;;;;;;9.07;8.30;;;21.90;99.90;;;;;;5013628;28;20256;-71
2023/09/11 00:17:30;;;;;;;9.13;8.23;;;21.90;99.90;;;;;;5015043;28;20673;-70
2023/09/11 00:19:56;;;;;;;9.53;8.07;;;21.90;99.90;;;;;;5014389;28;20411;-71
2023/09/11 00:22:22;;;;;;;8.57;7.70;;;22.00;99.90;;;;;;5013800;28;20172;-70
2023/09/11 00:24:47;;;;;;;9.23;8.47;;;22.00;99.90;;;;;;5013376;28;20217;-71
2023/09/11 00:27:13;;;;;;;9.30;8.40;;;21.90;99.90;;;;;;5014507;28;20196;-71
2023/09/11 00:29:38;;;;;;;8.80;8.00;;;21.90;99.90;;;;;;5014812;28;20171;-71
2023/09/11 00:32:04;;;;;;;7.80;7.07;;;21.90;99.90;;;;;;5015113;28;20179;-71
2023/09/11 00:34:30;;;;;;;8.50;7.80;;;22.00;99.90;;;;;;5015374;28;20231;-71
2023/09/11 00:36:56;;;;;;;8.97;8.17;;;21.90;99.90;;;;;;5015042;28;20415;-71
2023/09/11 00:39:21;;;;;;;9.30;8.50;;;21.90;99.90;;;;;;5015395;28;20172;-71
2023/09/11 00:41:47;;;;;;;11.17;7.63;;;21.80;99.90;;;;;;5014061;28;20168;-71
2023/09/11 00:44:13;;;;;;;8.87;8.07;;;21.60;99.90;;;;;;5014960;28;20207;-71
2023/09/11 00:46:39;;;;;;;9.00;7.93;;;21.50;99.90;;;;;;5014387;28;20195;-70
2023/09/11 00:49:06;;;;;;;9.20;8.40;;;21.50;99.90;;;;;;5014480;28;20222;-71
2023/09/11 00:51:32;;;;;;;10.70;9.00;;;21.50;99.90;;;;;;5014352;28;20518;-71
2023/09/11 00:53:58;;;;;;;8.40;7.70;;;21.50;99.90;;;;;;5013680;28;20461;-71
2023/09/11 00:56:24;;;;;;;9.10;8.13;;;21.50;99.90;;;;;;5014466;28;20414;-71
2023/09/11 00:58:50;;;;;;;9.17;8.03;;;21.60;99.90;;;;;;5013816;28;20407;-73
2023/09/11 01:01:17;;;;;;;8.43;7.73;;;21.60;99.90;;;;;;5014068;28;20179;-72
2023/09/11 01:03:44;;;;;;;7.87;7.10;;;21.70;99.90;;;;;;5012889;28;20889;-72
2023/09/11 01:06:10;;;;;;;9.90;9.00;;;21.70;99.90;;;;;;5014294;28;20794;-71
2023/09/11 01:08:36;;;;;;;9.20;8.40;;;21.70;99.90;;;;;;5013625;28;20399;-71
2023/09/11 01:11:01;;;;;;;9.23;7.60;;;21.80;99.90;;;;;;5013961;28;20651;-72
2023/09/11 01:13:27;;;;;;;10.13;7.87;;;21.70;99.90;;;;;;5013933;28;20579;-71
2023/09/11 01:15:54;;;;;;;8.93;7.70;;;21.60;99.90;;;;;;5013917;28;20283;-71
2023/09/11 01:18:34;;;;;;;9.60;8.80;;;21.60;99.90;;;;;;5014376;28;20168;-71
2023/09/11 01:21:25;;;;;;;9.73;8.83;;;21.60;99.90;;;;;;5014012;28;20383;-72
2023/09/11 01:24:04;;;;;;;9.43;8.03;;;21.60;99.90;;;;;;5013261;28;20513;-72
2023/09/11 01:27:11;;;;;;;9.40;8.60;;;21.60;99.90;;;;;;5013731;28;20438;-71
2023/09/11 01:29:40;;;;;;;10.57;9.17;;;21.50;99.90;;;;;;5012036;28;20789;-71
2023/09/11 01:32:06;;;;;;;8.57;7.77;;;21.50;99.90;;;;;;5013875;28;20414;-72
2023/09/11 01:34:31;;;;;;;9.93;8.40;;;21.30;99.90;;;;;;5013817;28;20461;-71
2023/09/11 01:36:57;;;;;;;8.83;8.07;;;21.30;99.90;;;;;;5013541;28;20777;-72
2023/09/11 01:39:23;;;;;;;9.50;8.70;;;21.20;99.90;;;;;;5012970;28;20195;-71
2023/09/11 01:41:50;;;;;;;8.23;7.43;;;21.20;99.90;;;;;;5013406;28;20160;-72
2023/09/11 01:44:19;;;;;;;9.30;8.50;;;21.20;99.90;;;;;;5013098;28;20493;-71
2023/09/11 01:46:47;;;;;;;10.90;9.00;;;21.20;99.90;;;;;;5013320;28;20463;-72
2023/09/11 01:49:14;;;;;;;9.67;8.87;;;21.20;99.90;;;;;;5013269;28;20411;-71
2023/09/11 01:51:41;;;;;;;8.73;8.03;;;21.10;99.90;;;;;;5013292;28;20794;-71
2023/09/11 01:54:08;;;;;;;10.37;9.37;;;21.20;99.90;;;;;;5012757;28;20442;-72
2023/09/11 01:56:35;;;;;;;9.43;8.53;;;21.20;99.90;;;;;;5013281;28;20794;-71
2023/09/11 01:59:01;;;;;;;10.20;8.73;;;21.10;99.90;;;;;;5011885;28;20422;-71
2023/09/11 02:01:26;;;;;;;9.17;8.37;;;21.10;99.90;;;;;;5011850;28;20427;-71
2023/09/11 02:03:52;;;;;;;9.50;8.70;;;21.20;99.90;;;;;;5013502;28;20509;-72
2023/09/11 02:06:17;;;;;;;9.43;8.50;;;21.20;99.90;;;;;;5013470;28;20192;-71
2023/09/11 02:08:43;;;;;;;10.30;9.30;;;21.20;99.90;;;;;;5012944;28;20183;-71
2023/09/11 02:11:10;;;;;;;10.23;9.13;;;21.20;99.90;;;;;;5012909;28;20176;-70
2023/09/11 02:13:36;;;;;;;9.23;8.40;;;21.10;99.90;;;;;;5012925;28;20301;-72
2023/09/11 02:16:02;;;;;;;9.37;8.57;;;20.90;99.90;;;;;;5012734;28;20941;-71
2023/09/11 02:18:27;;;;;;;10.03;9.20;;;20.90;99.90;;;;;;5012922;28;20168;-71
2023/09/11 02:20:53;;;;;;;9.83;8.83;;;20.80;99.90;;;;;;5013262;28;20171;-72
2023/09/11 02:23:18;;;;;;;14.93;9.87;;;20.70;99.90;;;;;;5004675;28;20662;-71
2023/09/11 02:25:44;;;;;;;10.83;9.73;;;20.80;99.90;;;;;;4993369;28;20690;-71
2023/09/11 02:28:10;;;;;;;9.03;8.23;;;20.70;99.90;;;;;;4991813;28;20165;-71
2023/09/11 02:30:35;;;;;;;10.47;9.57;;;20.70;99.90;;;;;;4993264;28;20474;-71
2023/09/11 02:33:02;;;;;;;10.27;9.37;;;20.70;99.90;;;;;;5008560;28;20191;-71
2023/09/11 02:35:27;;;;;;;9.90;9.00;;;20.70;99.90;;;;;;5012984;28;20196;-71
2023/09/11 02:37:53;;;;;;;8.70;7.80;;;20.70;99.90;;;;;;5012647;28;20820;-71
2023/09/11 02:40:18;;;;;;;9.40;8.60;;;20.80;99.90;;;;;;5012458;28;20247;-71
2023/09/11 02:42:44;;;;;;;9.33;8.43;;;20.80;99.90;;;;;;5012782;28;20658;-70
2023/09/11 02:45:10;;;;;;;10.17;9.17;;;20.90;99.90;;;;;;5012702;28;20168;-71
2023/09/11 02:47:35;;;;;;;8.87;8.13;;;20.80;99.90;;;;;;5013068;28;20187;-72
2023/09/11 02:50:01;;;;;;;10.20;9.13;;;20.70;99.90;;;;;;5013226;28;20176;-71
2023/09/11 02:52:26;;;;;;;9.43;8.43;;;20.50;99.90;;;;;;5010406;28;20183;-71
2023/09/11 02:54:52;;;;;;;9.67;8.87;;;20.50;99.90;;;;;;4993402;28;20173;-71
2023/09/11 02:57:17;;;;;;;9.90;8.90;;;20.60;99.90;;;;;;4996779;28;20263;-71
2023/09/11 02:59:43;;;;;;;10.03;8.50;;;20.60;99.90;;;;;;4997068;28;20161;-70
2023/09/11 03:02:09;;;;;;;9.53;8.53;;;20.50;99.90;;;;;;5004700;28;20187;-70
2023/09/11 03:04:34;;;;;;;14.73;8.33;;;20.40;99.90;;;;;;5016319;28;20172;-70
2023/09/11 03:07:00;;;;;;;10.07;9.07;;;20.40;99.90;;;;;;5016284;28;20431;-70
2023/09/11 03:09:27;;;;;;;11.10;10.10;;;20.40;99.90;;;;;;5015766;28;20168;-70
2023/09/11 03:11:52;;;;;;;9.47;8.67;;;20.30;99.90;;;;;;5016152;28;20172;-70
2023/09/11 03:14:18;;;;;;;10.50;9.60;;;20.30;99.90;;;;;;5016091;28;20932;-71
2023/09/11 03:16:43;;;;;;;10.03;9.17;;;20.40;99.90;;;;;;5015820;28;20278;-70
2023/09/11 03:19:10;;;;;;;11.63;10.63;;;20.30;99.90;;;;;;5016033;28;20649;-72
2023/09/11 03:21:36;;;;;;;9.43;8.53;;;20.30;99.90;;;;;;5015946;28;20220;-70
2023/09/11 03:24:02;;;;;;;10.83;9.73;;;20.30;99.90;;;;;;5014681;28;20449;-70
2023/09/11 03:26:28;;;;;;;9.43;8.53;;;20.30;99.90;;;;;;5015749;28;20649;-70
2023/09/11 03:28:53;;;;;;;11.73;9.97;;;20.20;99.90;;;;;;5016025;28;20406;-71
2023/09/11 03:31:19;;;;;;;10.53;9.50;;;20.10;99.90;;;;;;5015810;28;20514;-71
2023/09/11 03:33:45;;;;;;;10.80;9.70;;;20.10;99.90;;;;;;5016455;28;20199;-71
2023/09/11 03:36:16;;;;;;;10.43;9.50;;;20.10;99.90;;;;;;5015985;28;20554;-70
2023/09/11 03:38:41;;;;;;;13.53;9.40;;;20.10;99.90;;;;;;5015281;28;20168;-71
2023/09/11 03:41:07;;;;;;;10.83;9.83;;;20.10;99.90;;;;;;5015840;28;20912;-71
2023/09/11 03:43:32;;;;;;;9.80;8.93;;;20.00;99.90;;;;;;5015443;28;20175;-71
2023/09/11 03:45:58;;;;;;;9.80;8.83;;;20.10;99.90;;;;;;5015593;28;20188;-72
2023/09/11 03:48:24;;;;;;;10.27;9.37;;;19.90;99.90;;;;;;5015588;28;20199;-71
2023/09/11 03:50:49;;;;;;;9.83;8.90;;;19.90;99.90;;;;;;5015875;28;20251;-71
2023/09/11 03:53:15;;;;;;;10.30;9.50;;;19.80;99.90;;;;;;5015795;28;20244;-70
2023/09/11 03:55:40;;;;;;;10.03;9.13;;;19.80;99.90;;;;;;5016596;28;20219;-71
2023/09/11 03:58:06;;;;;;;9.77;8.97;;;19.90;99.90;;;;;;5019664;28;20176;-70
2023/09/11 04:00:31;;;;;;;10.20;9.17;;;19.80;99.90;;;;;;5016514;28;20255;-71
2023/09/11 04:02:57;;;;;;;9.83;8.87;;;19.70;99.90;;;;;;5017325;28;20164;-70
2023/09/11 04:05:22;;;;;;;10.27;9.40;;;19.70;99.90;;;;;;5016125;28;20165;-71
2023/09/11 04:07:48;;;;;;;11.93;9.00;;;19.70;99.90;;;;;;5015210;28;20672;-70
2023/09/11 04:10:13;;;;;;;9.80;8.90;;;19.70;99.90;;;;;;5014880;28;20182;-70
2023/09/11 04:12:39;;;;;;;11.77;9.70;;;19.70;99.90;;;;;;5013601;28;20279;-70
2023/09/11 04:15:05;;;;;;;11.53;10.33;;;19.60;99.90;;;;;;5015327;28;20168;-72
2023/09/11 04:17:31;;;;;;;10.33;9.43;;;19.70;99.90;;;;;;5015005;28;20175;-72
2023/09/11 04:19:56;;;;;;;10.40;9.47;;;19.60;99.90;;;;;;5014862;28;20430;-71
2023/09/11 04:22:22;;;;;;;10.90;9.67;;;19.50;99.90;;;;;;5014595;28;20689;-72
2023/09/11 04:24:47;;;;;;;11.73;10.70;;;19.40;99.90;;;;;;5013191;28;20183;-70
2023/09/11 04:27:13;;;;;;;10.27;9.37;;;19.40;99.90;;;;;;5015024;28;20236;-72
2023/09/11 04:29:39;;;;;;;10.10;9.20;;;19.50;99.90;;;;;;5015583;28;20479;-71
2023/09/11 04:32:05;;;;;;;11.67;10.63;;;19.40;99.90;;;;;;5014921;28;20427;-71
2023/09/11 04:34:30;;;;;;;11.70;10.53;;;19.50;99.90;;;;;;5014740;28;20678;-71
2023/09/11 04:36:56;;;;;;;12.37;10.80;;;19.50;99.90;;;;;;5014810;28;20195;-72
2023/09/11 04:39:23;;;;;;;11.47;10.53;;;19.50;99.90;;;;;;5014250;28;20199;-72
2023/09/11 04:41:49;;;;;;;10.33;9.43;;;19.40;99.90;;;;;;5010193;28;20570;-72
2023/09/11 04:44:14;;;;;;;15.53;10.80;;;19.40;99.90;;;;;;5014595;28;20411;-72
2023/09/11 04:46:40;;;;;;;11.70;10.60;;;19.40;99.90;;;;;;5014229;28;20614;-69
2023/09/11 04:49:05;;;;;;;10.50;9.23;;;19.40;99.90;;;;;;5014212;28;20255;-72
2023/09/11 04:51:31;;;;;;;11.33;9.70;;;19.40;99.90;;;;;;5014283;28;20198;-73
2023/09/11 04:53:57;;;;;;;12.43;11.03;;;19.30;99.90;;;;;;5013278;28;20595;-72
2023/09/11 04:56:23;;;;;;;10.17;9.27;;;19.30;99.90;;;;;;5014397;28;20423;-71
2023/09/11 04:58:48;;;;;;;9.87;8.90;;;19.30;99.90;;;;;;5014006;28;20670;-71
2023/09/11 05:01:14;;;;;;;12.50;11.20;;;19.30;99.90;;;;;;5014238;28;20173;-71
2023/09/11 05:03:39;;;;;;;11.47;10.47;;;19.20;99.90;;;;;;5014301;28;20168;-72
2023/09/11 05:06:05;;;;;;;11.67;10.60;;;19.20;99.90;;;;;;5014808;28;20191;-71
2023/09/11 05:08:31;;;;;;;12.20;10.53;;;19.30;99.90;;;;;;5013901;28;20172;-71
2023/09/11 05:10:56;;;;;;;10.40;9.50;;;19.50;99.90;;;;;;5013799;28;20168;-71
2023/09/11 05:13:22;;;;;;;11.87;10.83;;;19.50;99.90;;;;;;5013969;28;20196;-71
2023/09/11 05:15:50;;;;;;;11.87;10.90;;;19.50;99.90;;;;;;5013791;28;20203;-69
2023/09/11 05:18:16;;;;;;;10.50;9.60;;;19.50;99.90;;;;;;5016893;23;20275;-71
2023/09/11 05:20:42;;;;;;;11.47;10.20;;;19.60;99.90;;;;;;4992509;28;20866;-70
2023/09/11 05:23:07;;;;;;;10.87;9.77;;;19.60;99.90;;;;;;4988547;28;20177;-70
2023/09/11 05:25:34;;;;;;;10.20;9.30;;;19.60;99.90;;;;;;4974359;28;20176;-70
2023/09/11 05:28:00;;;;;;;11.87;10.63;;;19.70;99.90;;;;;;5002428;28;20246;-70
2023/09/11 05:30:25;;;;;;;11.00;9.87;;;19.80;99.90;;;;;;5012953;28;20401;-71
2023/09/11 05:32:52;;;;;;;13.20;10.97;;;19.80;99.90;;;;;;5013555;28;20203;-71
2023/09/11 05:35:19;;;;;;;12.10;10.90;;;19.80;99.90;;;;;;5012087;28;20230;-69
2023/09/11 05:37:45;;;;;;;11.90;10.77;;;19.80;99.90;;;;;;5001787;28;20795;-70
2023/09/11 05:40:10;;;;;;;11.93;10.93;;;19.80;99.90;;;;;;4992370;28;20494;-70
2023/09/11 05:42:36;;;;;;;10.93;10.03;;;19.80;99.90;;;;;;4993902;28;20169;-70
2023/09/11 05:45:02;;;;;;;10.87;9.73;;;19.70;99.90;;;;;;4993694;28;20169;-70
2023/09/11 05:47:27;;;;;;;11.43;10.43;;;19.60;99.90;;;;;;5001979;28;20196;-70
2023/09/11 05:49:53;;;;;;;11.47;10.47;;;19.60;99.90;;;;;;5002639;28;20173;-71
2023/09/11 05:52:19;;;;;;;11.43;10.33;;;19.70;99.90;;;;;;4993268;28;20173;-70
2023/09/11 05:54:44;;;;;;;10.70;9.60;;;19.60;99.90;;;;;;4992746;28;20176;-71
2023/09/11 05:57:10;;;;;;;11.50;10.40;;;19.70;99.90;;;;;;4998751;28;20204;-69
2023/09/11 05:59:35;;;;;;;10.57;9.57;;;19.80;99.90;;;;;;5012685;28;20169;-71
2023/09/11 06:02:01;;;;;;;10.80;9.70;;;19.90;99.90;;;;;;4994000;28;20176;-71
2023/09/11 06:04:27;;;;;;;10.30;9.33;;;20.00;99.90;;;;;;4992760;28;20649;-70
2023/09/11 06:06:52;;;;;;;9.50;8.73;;;20.10;99.90;;;;;;4994188;28;20210;-70
2023/09/11 06:09:18;;;;;;;10.50;9.60;;;20.20;99.90;;;;;;5012906;28;20168;-70
2023/09/11 06:11:44;;;;;;;10.10;9.17;;;20.30;99.90;;;;;;5012691;28;20171;-70
2023/09/11 06:14:10;;;;;;;9.90;9.10;;;20.40;99.90;;;;;;5003945;28;20456;-70
2023/09/11 06:16:35;;;;;;;10.70;9.73;;;20.50;99.90;;;;;;4994006;28;20239;-71
2023/09/11 06:19:01;;;;;;;11.80;10.70;;;20.50;99.90;;;;;;5013157;28;20203;-72
2023/09/11 06:21:27;;;;;;;9.67;8.77;;;20.60;99.90;;;;;;5012907;28;20630;-71
2023/09/11 06:23:53;;;;;;;10.60;9.60;;;20.60;99.90;;;;;;5003387;28;20173;-70
2023/09/11 06:26:18;;;;;;;10.40;9.40;;;20.70;99.90;;;;;;4993113;28;20450;-70
2023/09/11 06:28:44;;;;;;;11.00;10.00;;;20.70;99.90;;;;;;5011474;28;20179;-70
2023/09/11 06:31:10;;;;;;;10.00;9.10;;;20.80;99.90;;;;;;5016759;28;20167;-69
2023/09/11 06:33:36;;;;;;;9.87;8.97;;;20.90;99.90;;;;;;5017012;28;20196;-70
2023/09/11 06:36:03;;;;;;;10.70;9.60;;;21.00;99.90;;;;;;5016676;28;20407;-71
2023/09/11 06:38:29;;;;;;;9.83;8.80;;;21.10;99.90;;;;;;5000517;28;20243;-68
2023/09/11 06:40:55;;;;;;;10.83;9.80;;;21.20;99.90;;;;;;4996987;28;20400;-70
2023/09/11 06:43:20;;;;;;;10.57;9.53;;;21.40;99.90;;;;;;4999278;28;20418;-70
2023/09/11 06:45:50;;;;;;;10.40;9.37;;;21.50;99.90;;;;;;4995697;28;20411;-70
2023/09/11 06:48:16;;;;;;;10.47;9.47;;;21.60;99.90;;;;;;5005925;28;20195;-70
2023/09/11 06:50:42;;;;;;;9.93;9.00;;;21.60;99.90;;;;;;5015958;28;20970;-70
2023/09/11 06:53:08;;;;;;;12.03;9.33;;;21.70;99.90;;;;;;5016041;28;20195;-70
2023/09/11 06:55:34;;;;;;;9.70;8.70;;;21.80;99.90;;;;;;5015996;28;20172;-70
2023/09/11 06:58:01;;;;;;;10.33;9.33;;;22.00;99.90;;;;;;5004578;28;20485;-70
2023/09/11 07:00:26;;;;;;;10.20;9.40;;;22.00;99.90;;;;;;4996414;28;20434;-70
2023/09/11 07:02:52;;;;;;;11.10;9.90;;;22.20;99.90;;;;;;4996434;28;20490;-70
2023/09/11 07:05:20;;;;;;;11.80;10.10;;;22.30;99.90;;;;;;4996672;28;20255;-70
2023/09/11 07:07:46;;;;;;;12.70;9.70;;;22.40;99.90;;;;;;4988520;28;20535;-71
2023/09/11 07:10:17;;;;;;;10.83;9.83;;;22.50;99.90;;;;;;5016637;28;20411;-70
2023/09/11 07:12:43;;;;;;;9.73;8.90;;;22.60;99.90;;;;;;5016511;28;20843;-70
2023/09/11 07:15:09;;;;;;;9.20;8.33;;;22.70;99.90;;;;;;5000346;28;20411;-69
2023/09/11 07:17:35;;;;;;;9.70;8.80;;;22.80;99.90;;;;;;5004196;28;20453;-70
2023/09/11 07:20:04;;;;;;;11.93;10.70;;;23.00;99.90;;;;;;5015766;28;20403;-70
2023/09/11 07:22:30;;;;;;;9.90;8.90;;;23.10;99.90;;;;;;5015657;28;20267;-71
2023/09/11 07:24:56;;;;;;;9.77;8.87;;;23.20;99.90;;;;;;5015691;28;20462;-71
2023/09/11 07:27:22;;;;;;;10.17;9.17;;;23.30;99.90;;;;;;5009287;28;20275;-70
2023/09/11 07:29:49;;;;;;;9.87;8.87;;;23.40;99.90;;;;;;4995872;28;20424;-70
2023/09/11 07:32:15;;;;;;;10.23;9.23;;;23.60;99.90;;;;;;4996558;28;20172;-71
2023/09/11 07:34:40;;;;;;;10.13;9.23;;;23.60;99.90;;;;;;4996006;28;20840;-70
2023/09/11 07:37:06;;;;;;;11.37;10.30;;;23.80;99.90;;;;;;4999545;28;20255;-70
2023/09/11 07:39:32;;;;;;;11.53;9.70;;;23.80;99.90;;;;;;5015465;28;20168;-70
2023/09/11 07:41:58;;;;;;;11.13;9.43;;;23.80;99.90;;;;;;5014320;28;20172;-70
2023/09/11 07:44:23;;;;;;;11.23;10.23;;;23.70;99.90;;;;;;5006205;28;20223;-70
2023/09/11 07:46:49;;;;;;;11.63;10.37;;;23.70;99.90;;;;;;4997179;28;20434;-70
2023/09/11 07:49:14;;;;;;;12.10;10.90;;;23.50;99.90;;;;;;5015533;28;20168;-70
2023/09/11 07:51:40;;;;;;;13.17;11.27;;;23.50;99.90;;;;;;5015102;28;20211;-70
2023/09/11 07:54:06;;;;;;;13.33;11.93;;;23.50;99.90;;;;;;5015518;28;20291;-70
2023/09/11 07:56:33;;;;;;;13.03;11.70;;;23.50;99.90;;;;;;5013804;28;20732;-70
2023/09/11 07:59:01;;;;;;;13.37;11.63;;;23.70;99.90;;;;;;4995951;28;20200;-71
2023/09/11 08:01:26;;;;;;;13.00;11.80;;;23.90;99.90;;;;;;4995546;28;20466;-71
2023/09/11 08:03:52;;;;;;;13.03;11.73;;;23.90;99.90;;;;;;4995752;28;20827;-70
2023/09/11 08:06:18;;;;;;;12.27;11.10;;;23.80;99.90;;;;;;4995526;28;20176;-71
2023/09/11 08:08:44;;;;;;;12.93;11.83;;;23.70;99.90;;;;;;5012272;28;20638;-70
2023/09/11 08:11:12;;;;;;;15.77;12.53;;;23.90;99.90;;;;;;5015273;28;20474;-69
2023/09/11 08:13:38;;;;;;;13.33;11.93;;;23.90;99.90;;;;;;5011642;28;20666;-71
2023/09/11 08:16:04;;;;;;;13.23;12.03;;;24.00;99.90;;;;;;4995182;28;20420;-71
2023/09/11 08:18:29;;;;;;;13.20;11.10;;;24.10;99.90;;;;;;5009497;28;20749;-70
2023/09/11 08:20:55;;;;;;;13.30;12.10;;;24.50;99.90;;;;;;5014468;28;20160;-71
2023/09/11 08:23:21;;;;;;;13.10;11.57;;;24.30;99.90;;;;;;5014893;28;20615;-70
2023/09/11 08:25:47;;;;;;;12.53;11.10;;;24.30;99.90;;;;;;5003416;28;20169;-70
2023/09/11 08:28:12;;;;;;;12.10;11.10;;;24.30;99.90;;;;;;5007095;28;20431;-70
2023/09/11 08:30:38;;;;;;;12.53;11.40;;;24.30;99.90;;;;;;5014239;28;20639;-71
2023/09/11 08:33:03;;;;;;;11.80;10.70;;;24.40;99.90;;;;;;5014579;28;20227;-70
2023/09/11 08:35:30;;;;;;;13.23;11.83;;;24.60;99.90;;;;;;5014741;28;20172;-71
2023/09/11 08:37:55;;;;;;;12.00;10.80;;;24.60;99.90;;;;;;5004114;28;20683;-71
2023/09/11 08:40:30;;;;;;;13.53;12.17;;;24.70;99.90;;;;;;4997405;28;20975;-71
2023/09/11 08:42:57;;;;;;;13.07;11.77;;;24.90;99.90;;;;;;4991424;28;20236;-71
2023/09/11 08:45:25;;;;;;;12.60;11.40;;;25.00;99.90;;;;;;4994546;28;20470;-70
2023/09/11 08:47:54;;;;;;;12.33;11.30;;;25.00;99.90;;;;;;5003917;28;20797;-71
2023/09/11 08:50:21;;;;;;;13.00;11.80;;;25.20;99.90;;;;;;5014174;28;20403;-71
2023/09/11 08:52:48;;;;;;;11.83;10.63;;;25.20;99.90;;;;;;5012795;28;20462;-71
2023/09/11 08:55:17;;;;;;;13.03;11.37;;;25.40;99.90;;;;;;5014229;28;20403;-71
2023/09/11 08:57:43;;;;;;;13.13;10.67;;;25.50;99.90;;;;;;5006192;28;20431;-71
2023/09/11 09:00:12;;;;;;;11.73;10.63;;;25.50;99.90;;;;;;4994186;28;20414;-71
2023/09/11 09:02:38;;;;;;;10.70;9.80;;;25.50;99.90;;;;;;4994532;28;20400;-71
2023/09/11 09:05:05;;;;;;;12.13;10.73;;;25.60;99.90;;;;;;4994393;28;20422;-71
2023/09/11 09:07:32;;;;;;;12.03;10.83;;;25.70;99.90;;;;;;5000545;28;20427;-71
2023/09/11 09:09:58;;;;;;;13.50;10.13;;;25.80;99.90;;;;;;5014120;28;20395;-71
2023/09/11 09:12:26;;;;;;;11.30;10.20;;;25.90;99.90;;;;;;5013963;28;20407;-71
2023/09/11 09:14:53;;;;;;;11.40;10.43;;;26.00;99.90;;;;;;5000558;28;20407;-71
2023/09/11 09:17:18;;;;;;;10.80;9.80;;;25.90;99.90;;;;;;4996815;28;20878;-71
2023/09/11 09:19:44;;;;;;;12.03;10.83;;;25.90;99.90;;;;;;5013907;28;20419;-71
2023/09/11 09:22:12;;;;;;;11.63;10.63;;;26.10;99.90;;;;;;5013660;28;20168;-71
2023/09/11 09:24:47;;;;;;;11.23;10.10;;;26.10;99.90;;;;;;5014382;28;20175;-71
2023/09/11 09:27:13;;;;;;;11.40;10.30;;;26.10;99.90;;;;;;5010241;28;20798;-69
2023/09/11 09:29:39;;;;;;;11.27;10.20;;;26.20;99.90;;;;;;4993602;28;20407;-71
2023/09/11 09:32:08;;;;;;;12.87;10.50;;;26.20;99.90;;;;;;4993995;28;20264;-70
2023/09/11 09:34:36;;;;;;;11.33;10.13;;;26.50;99.90;;;;;;4994107;28;20826;-71
2023/09/11 09:37:02;;;;;;;11.00;9.50;;;26.70;99.90;;;;;;4995298;28;20794;-70
2023/09/11 09:39:29;;;;;;;10.80;9.73;;;26.80;99.90;;;;;;5013600;28;20464;-70
2023/09/11 09:42:01;;;;;;;11.63;10.53;;;26.90;99.90;;;;;;5013242;28;20857;-71
2023/09/11 09:44:53;;;;;;;10.13;9.13;;;27.00;99.90;;;;;;5003247;28;20427;-70
2023/09/11 09:47:19;;;;;;;10.50;9.50;;;27.20;99.90;;;;;;4997276;28;20431;-70
2023/09/11 09:49:53;;;;;;;9.60;8.70;;;27.30;99.90;;;;;;5013428;28;20776;-70
2023/09/11 09:52:25;;;;;;;12.10;9.63;;;27.40;99.90;;;;;;5013030;28;20494;-70
2023/09/11 09:54:54;;;;;;;11.10;8.47;;;27.70;99.90;;;;;;5013123;28;20952;-70
2023/09/11 09:57:22;;;;;;;10.67;9.63;;;27.70;99.90;;;;;;5009269;28;20805;-70
2023/09/11 09:59:58;;;;;;;11.53;9.70;;;27.70;99.90;;;;;;4993330;28;20404;-70
2023/09/11 10:02:32;;;;;;;10.10;8.10;;;27.90;99.90;;;;;;4993415;28;20399;-70
2023/09/11 10:05:02;;;;;;;8.10;7.30;;;28.00;99.90;;;;;;4993365;28;20743;-71
2023/09/11 10:07:40;;;;;;;9.00;7.50;;;28.10;99.90;;;;;;4997913;28;20419;-70
2023/09/11 10:10:28;;;;;;;11.63;8.30;;;28.10;99.90;;;;;;5012991;28;20494;-70
2023/09/11 10:13:05;;;;;;;8.60;7.30;;;28.30;99.90;;;;;;5012958;28;20482;-70
2023/09/11 10:15:33;;;;;;;10.60;7.87;;;28.30;99.50;;;;;;4994435;28;20446;-70
2023/09/11 10:18:01;;;;;;;9.40;7.50;;;28.40;99.90;;;;;;5001772;28;20443;-70
2023/09/11 10:20:27;;;;;;;9.67;8.50;;;28.50;99.80;;;;;;5013333;28;20395;-70
2023/09/11 10:22:54;;;;;;;9.17;7.70;;;28.50;99.90;;;;;;5012451;28;20414;-70
2023/09/11 10:25:22;;;;;;;8.83;7.93;;;28.40;99.90;;;;;;5012782;28;20434;-71
2023/09/11 10:27:49;;;;;;;11.20;8.80;;;28.40;99.80;;;;;;5005770;28;20419;-70
2023/09/11 10:30:21;;;;;;;10.17;8.57;;;28.60;99.90;;;;;;4993154;28;20408;-70
2023/09/11 10:32:57;;;;;;;8.63;7.83;;;28.80;99.40;;;;;;4999962;28;20406;-71
2023/09/11 10:35:24;;;;;;;9.60;8.30;;;29.00;99.70;;;;;;5009583;28;20407;-71
2023/09/11 10:37:56;;;;;;;9.73;8.73;;;29.00;98.60;;;;;;5005139;28;20435;-71
2023/09/11 10:40:27;;;;;;;13.13;8.80;;;28.80;98.90;;;;;;4989871;28;20427;-70
2023/09/11 10:42:53;;;;;;;10.17;8.67;;;28.80;98.90;;;;;;4993379;28;20894;-70
2023/09/11 10:45:26;;;;;;;9.97;8.97;;;29.10;99.70;;;;;;4992657;28;20420;-70
2023/09/11 10:47:51;;;;;;;9.17;8.27;;;29.30;98.50;;;;;;5000546;28;20211;-70
2023/09/11 10:50:17;;;;;;;9.80;7.17;;;30.00;97.20;;;;;;5012524;28;20419;-71
2023/09/11 10:52:45;;;;;;;9.93;7.93;;;30.30;96.00;;;;;;5011999;28;20180;-71
2023/09/11 10:55:11;;;;;;;8.20;7.40;;;30.70;95.30;;;;;;5012710;28;20196;-69
2023/09/11 10:57:37;;;;;;;12.20;7.80;;;31.70;93.90;;;;;;5007296;28;20435;-71
2023/09/11 11:00:05;;;;;;;10.90;8.33;;;32.90;93.00;;;;;;4992790;28;20173;-71
2023/09/11 11:02:31;;;;;;;9.47;8.50;;;34.00;89.90;;;;;;4991993;28;20210;-71
2023/09/11 11:04:57;;;;;;;7.80;6.80;;;34.60;85.00;;;;;;4992453;28;20531;-69
2023/09/11 11:07:23;;;;;;;8.00;7.13;;;35.10;83.10;;;;;;4992548;28;20189;-69
2023/09/11 11:09:49;;;;;;;8.60;6.10;;;36.60;75.80;;;;;;4993153;28;20403;-69
2023/09/11 11:12:34;;;;;;;6.87;6.20;;;37.60;71.80;;;;;;5008198;28;20410;-69
2023/09/11 11:15:19;;;;;;;7.10;6.50;;;37.80;68.90;;;;;;4998463;28;20180;-69
2023/09/11 11:17:45;;;;;;;13.23;7.43;;;36.80;68.00;;;;;;4996816;28;20458;-71
2023/09/11 11:20:11;;;;;;;7.33;6.27;;;37.00;67.90;;;;;;4996833;28;20400;-71
2023/09/11 11:22:41;;;;;;;7.30;6.20;;;36.40;66.80;;;;;;5014692;28;20176;-71
2023/09/11 11:25:12;;;;;;;9.30;6.33;;;37.30;68.90;;;;;;5016238;28;20490;-71
2023/09/11 11:27:38;;;;;;;8.33;6.47;;;37.70;63.10;;;;;;5016019;28;20445;-71
2023/09/11 11:30:05;;;;;;;7.00;6.03;;;38.40;62.10;;;;;;5015564;28;20498;-71
2023/09/11 11:32:34;;;;;;;11.80;6.63;;;38.90;60.00;;;;;;4996811;28;20400;-72
2023/09/11 11:35:02;;;;;;;8.03;6.13;;;38.10;61.40;;;;;;4996467;28;20427;-72
2023/09/11 11:37:35;;;;;;;7.27;6.60;;;38.60;59.00;;;;;;4996308;28;20435;-72
2023/09/11 11:40:01;;;;;;;12.90;6.90;;;38.50;59.50;;;;;;4996092;28;20412;-69
2023/09/11 11:42:27;;;;;;;10.83;6.97;;;39.20;59.00;;;;;;5012944;28;20430;-70
2023/09/11 11:44:53;;;;;;;11.00;7.63;;;39.20;59.20;;;;;;5002167;28;20179;-71
2023/09/11 11:47:20;;;;;;;13.30;7.03;;;39.00;57.20;;;;;;4995759;28;20534;-70
2023/09/11 11:49:47;;;;;;;7.77;7.07;;;39.40;56.80;;;;;;4994617;28;20414;-70
2023/09/11 11:52:12;;;;;;;9.30;6.80;;;39.40;55.40;;;;;;5010310;28;20421;-70
2023/09/11 11:54:38;;;;;;;11.00;7.17;;;39.70;54.50;;;;;;5015432;28;20442;-71
2023/09/11 11:57:05;;;;;;;10.40;6.80;;;39.60;55.20;;;;;;5015472;28;20617;-71
2023/09/11 11:59:38;;;;;;;7.53;6.83;;;40.70;54.30;;;;;;5015363;28;20626;-71
2023/09/11 12:02:05;;;;;;;7.97;7.27;;;41.60;51.40;;;;;;5002072;28;20407;-70
2023/09/11 12:04:30;;;;;;;7.47;6.67;;;38.70;54.20;;;;;;4995475;28;20412;-71
2023/09/11 12:06:59;;;;;;;9.40;6.63;;;38.60;54.80;;;;;;4995410;28;20456;-72
2023/09/11 12:09:25;;;;;;;7.97;6.90;;;38.30;54.90;;;;;;4995447;28;20176;-72
2023/09/11 12:11:52;;;;;;;7.27;6.13;;;39.60;53.40;;;;;;5006915;28;20468;-72
2023/09/11 12:14:18;;;;;;;8.37;6.17;;;40.60;52.00;;;;;;5006091;28;20509;-71
2023/09/11 12:16:45;;;;;;;10.87;6.60;;;41.50;50.20;;;;;;4994029;28;20443;-71
2023/09/11 12:19:10;;;;;;;8.40;5.80;;;41.70;48.50;;;;;;4995458;28;20430;-73
2023/09/11 12:21:36;;;;;;;7.77;6.13;;;42.10;47.80;;;;;;5003647;28;20414;-72
2023/09/11 12:24:03;;;;;;;6.97;6.10;;;42.60;46.40;;;;;;5014005;28;20498;-72
2023/09/11 12:26:29;;;;;;;8.00;6.37;;;42.30;47.10;;;;;;5014921;28;20419;-71
2023/09/11 12:28:56;;;;;;;8.67;6.37;;;41.30;48.00;;;;;;5014636;28;20418;-71
2023/09/11 12:31:22;;;;;;;8.47;6.20;;;39.40;50.30;;;;;;5007483;28;20407;-73
2023/09/11 12:33:57;;;;;;;7.03;5.60;;;38.70;51.70;;;;;;5009218;28;20462;-70
2023/09/11 12:36:24;;;;;;;8.63;6.50;;;39.60;50.10;;;;;;5014839;28;20167;-69